Time;durP1;ratioP1;P1;durP2;ratioP2;P2;SDS_P1;SDS_P2;PMS_P1;PMS_P2;Temp;Humidity;BMP_temperature;BMP_pressure;BME280_temperature;BME280_humidity;BME280_pressure;Samples;Min_cycle;Max_cycle;Signal;HPM_P1;HPM_P2
2022/06/16 00:01:46;;;;;;;3.10;2.05;;;;;;;13.76;69.48;99510.97;4913202;29;20040;-81
2022/06/16 00:04:12;;;;;;;2.50;1.83;;;;;;;13.79;69.57;99511.75;4908328;29;20052;-81
2022/06/16 00:06:38;;;;;;;4.03;1.98;;;;;;;13.81;69.53;99530.03;4906841;29;20085;-80
2022/06/16 00:09:04;;;;;;;5.47;1.88;;;;;;;13.65;69.41;99511.25;4907133;29;20043;-78
2022/06/16 00:11:31;;;;;;;3.42;1.88;;;;;;;13.64;69.45;99514.78;4895076;29;20059;-78
2022/06/16 00:13:57;;;;;;;3.70;1.90;;;;;;;13.70;69.65;99530.31;4894468;29;20040;-80
2022/06/16 00:16:23;;;;;;;5.28;1.98;;;;;;;13.60;69.66;99523.59;4910188;29;20047;-80
2022/06/16 00:18:50;;;;;;;8.68;1.90;;;;;;;13.50;69.61;99516.00;4907449;29;20093;-81
2022/06/16 00:21:17;;;;;;;5.03;2.00;;;;;;;13.57;69.67;99537.59;4908484;29;20040;-79
2022/06/16 00:23:43;;;;;;;2.53;1.52;;;;;;;13.48;69.78;99538.69;4922728;29;20103;-80
2022/06/16 00:26:18;;;;;;;2.28;1.63;;;;;;;13.38;69.94;99519.75;4921080;29;20052;-80
2022/06/16 00:28:48;;;;;;;3.47;1.50;;;;;;;13.43;70.01;99535.34;4894028;29;20039;-83
2022/06/16 00:31:17;;;;;;;3.53;1.83;;;;;;;13.21;69.97;99504.47;4893561;29;20132;-77
2022/06/16 00:33:44;;;;;;;2.10;1.90;;;;;;;13.35;70.22;99539.88;4905724;29;20582;-78
2022/06/16 00:36:11;;;;;;;2.85;1.73;;;;;;;13.38;70.17;99532.81;4907295;29;20115;-80
2022/06/16 00:38:38;;;;;;;3.45;1.80;;;;;;;13.44;70.42;99534.44;4909719;29;20083;-77
2022/06/16 00:41:05;;;;;;;6.45;2.10;;;;;;;13.46;70.34;99534.41;4908903;29;20940;-77
2022/06/16 00:43:32;;;;;;;3.40;1.92;;;;;;;13.61;70.43;99551.44;4911577;29;20048;-79
2022/06/16 00:46:02;;;;;;;5.47;1.92;;;;;;;13.67;70.47;99543.47;4921395;29;20039;-79
2022/06/16 00:48:42;;;;;;;2.15;1.80;;;;;;;13.75;70.36;99538.03;4905972;29;20134;-80
2022/06/16 00:51:09;;;;;;;3.38;2.10;;;;;;;13.80;70.30;99546.63;4907039;29;20095;-80
2022/06/16 00:53:39;;;;;;;3.60;1.77;;;;;;;13.70;70.21;99517.22;4910611;29;20044;-77
2022/06/16 00:56:06;;;;;;;1.95;1.70;;;;;;;13.93;70.05;99547.16;4907369;29;20036;-79
2022/06/16 00:58:36;;;;;;;2.38;1.90;;;;;;;13.89;70.14;99532.44;4908033;29;20036;-77
2022/06/16 01:01:02;;;;;;;2.67;1.65;;;;;;;13.99;70.21;99545.22;4907734;29;20533;-78
2022/06/16 01:06:18;;;;;;;3.22;1.70;;;;;;;13.93;70.27;99521.84;4905446;29;20066;-77
2022/06/16 01:08:46;;;;;;;3.53;1.70;;;;;;;14.09;69.74;99552.84;4911978;29;20079;-80
2022/06/16 01:14:40;;;;;;;2.38;1.75;;;;;;;14.14;69.61;99554.41;4925130;29;20059;-78
2022/06/16 01:17:34;;;;;;;5.18;2.20;;;;;;;14.07;69.66;99544.16;4910030;29;20055;-78
2022/06/16 01:20:25;;;;;;;4.22;1.90;;;;;;;14.03;69.54;99555.59;4907787;29;20047;-79
2022/06/16 01:23:27;;;;;;;2.00;1.80;;;;;;;13.94;69.54;99557.56;4908626;29;20041;-78
2022/06/16 01:26:27;;;;;;;2.75;2.10;;;;;;;13.84;69.69;99566.56;4927323;29;20088;-79
2022/06/16 01:29:12;;;;;;;2.38;2.00;;;;;;;13.76;69.60;99565.88;4927458;29;20028;-80
2022/06/16 01:31:46;;;;;;;4.07;1.90;;;;;;;13.68;69.77;99566.94;4931043;29;20059;-80
2022/06/16 01:34:34;;;;;;;3.22;2.20;;;;;;;13.64;69.64;99572.28;4926820;29;20060;-80
2022/06/16 01:37:19;;;;;;;3.72;1.90;;;;;;;13.59;69.73;99571.53;4941919;29;20047;-80
2022/06/16 01:40:08;;;;;;;3.92;2.58;;;;;;;13.55;69.91;99570.75;4927385;29;20100;-78
2022/06/16 01:42:44;;;;;;;3.25;2.10;;;;;;;13.50;70.10;99576.13;4893078;29;20048;-82
2022/06/16 01:45:27;;;;;;;4.80;2.15;;;;;;;13.49;70.04;99573.53;4893234;29;20127;-79
2022/06/16 01:47:56;;;;;;;2.47;2.17;;;;;;;13.32;70.02;99564.31;4926736;29;20052;-79
2022/06/16 01:50:32;;;;;;;4.65;2.10;;;;;;;13.45;70.26;99588.44;4926500;29;20119;-78
2022/06/16 01:53:06;;;;;;;2.55;2.20;;;;;;;13.34;70.29;99572.13;4910838;29;20075;-78
2022/06/16 01:55:40;;;;;;;4.47;2.30;;;;;;;13.34;70.38;99580.81;4917124;29;20043;-78
2022/06/16 01:58:15;;;;;;;5.68;2.15;;;;;;;13.37;70.29;99592.94;4917285;29;20112;-78
2022/06/16 02:00:45;;;;;;;3.83;2.42;;;;;;;13.35;70.66;99594.75;4916452;29;20040;-78
2022/06/16 02:03:21;;;;;;;4.68;2.10;;;;;;;13.39;70.61;99593.75;4926113;29;20048;-81
2022/06/16 02:05:53;;;;;;;3.47;2.17;;;;;;;13.41;70.56;99599.84;4911861;29;20516;-80
2022/06/16 02:08:45;;;;;;;4.95;2.17;;;;;;;13.45;70.65;99601.50;4909845;29;20440;-78
2022/06/16 02:11:16;;;;;;;8.45;2.38;;;;;;;13.50;70.86;99599.63;4910336;29;20409;-78
2022/06/16 02:13:50;;;;;;;4.20;2.13;;;;;;;13.50;70.65;99591.81;4909578;29;20419;-79
2022/06/16 02:16:21;;;;;;;3.78;2.10;;;;;;;13.57;70.74;99594.28;4924106;29;20480;-79
2022/06/16 02:18:51;;;;;;;2.45;2.08;;;;;;;13.68;70.66;99598.31;4892741;29;20044;-80
2022/06/16 02:21:41;;;;;;;5.40;2.20;;;;;;;13.69;70.79;99586.13;4894525;29;20082;-81
2022/06/16 02:24:13;;;;;;;6.28;2.30;;;;;;;13.89;70.66;99603.03;4896586;29;20048;-80
2022/06/16 02:26:40;;;;;;;3.28;2.20;;;;;;;13.97;70.54;99604.56;4923043;29;20543;-81
2022/06/16 02:29:36;;;;;;;6.63;2.03;;;;;;;13.97;70.40;99585.41;4911751;29;20040;-79
2022/06/16 02:32:02;;;;;;;3.58;2.17;;;;;;;14.18;70.39;99601.44;4923853;29;20492;-78
2022/06/16 02:34:50;;;;;;;3.58;2.10;;;;;;;14.29;70.28;99601.97;4894846;29;20052;-78
2022/06/16 02:37:57;;;;;;;6.78;2.08;;;;;;;14.36;69.62;99611.41;4896352;29;20071;-81
2022/06/16 02:40:46;;;;;;;2.85;1.90;;;;;;;14.37;69.62;99618.34;4921404;29;20036;-80
2022/06/16 02:43:37;;;;;;;3.20;1.90;;;;;;;14.44;69.37;99614.66;4911109;29;20043;-81
2022/06/16 02:46:13;;;;;;;3.35;1.70;;;;;;;14.49;69.35;99621.50;4910018;29;20508;-79
2022/06/16 02:48:48;;;;;;;2.80;1.90;;;;;;;14.60;69.12;99619.47;4922348;29;20076;-80
2022/06/16 02:51:41;;;;;;;6.90;2.17;;;;;;;14.69;68.73;99616.59;4890750;29;20096;-78
2022/06/16 02:54:20;;;;;;;2.00;1.80;;;;;;;14.65;68.41;99599.25;4909109;29;20520;-78
2022/06/16 02:56:49;;;;;;;3.35;1.83;;;;;;;14.82;68.36;99613.66;4921714;29;20056;-81
2022/06/16 02:59:22;;;;;;;3.45;1.85;;;;;;;14.84;67.98;99609.22;4932386;29;20163;-78
2022/06/16 03:01:51;;;;;;;2.97;1.65;;;;;;;14.71;67.07;99588.59;4932601;29;20048;-79
2022/06/16 03:04:20;;;;;;;3.40;1.77;;;;;;;14.95;67.28;99614.97;4916838;29;20130;-80
2022/06/16 03:06:46;;;;;;;6.50;1.83;;;;;;;15.02;67.19;99598.19;4899418;29;20040;-79
2022/06/16 03:09:13;;;;;;;5.20;1.90;;;;;;;15.12;66.67;99601.38;4915699;29;20127;-82
2022/06/16 03:11:40;;;;;;;3.08;1.88;;;;;;;15.28;66.46;99614.88;4895422;29;20135;-80
2022/06/16 03:14:10;;;;;;;3.97;2.40;;;;;;;15.35;66.25;99605.03;4910719;29;20424;-79
2022/06/16 03:16:43;;;;;;;3.63;2.05;;;;;;;15.48;66.07;99601.13;4892245;29;20128;-81
2022/06/16 03:19:10;;;;;;;3.00;1.90;;;;;;;15.63;65.62;99599.75;4895080;29;20044;-79
2022/06/16 03:21:40;;;;;;;2.58;1.80;;;;;;;15.91;65.08;99617.25;4910774;29;20040;-80
2022/06/16 03:24:09;;;;;;;4.45;1.75;;;;;;;16.08;64.52;99619.28;4908397;29;20052;-81
2022/06/16 03:26:36;;;;;;;3.75;1.83;;;;;;;16.27;64.02;99611.63;4895798;29;20044;-82
2022/06/16 03:29:05;;;;;;;3.78;1.75;;;;;;;16.39;63.65;99618.19;4893518;29;20058;-78
2022/06/16 03:31:31;;;;;;;4.10;2.15;;;;;;;16.51;63.16;99614.28;4894995;29;20172;-80
2022/06/16 03:33:57;;;;;;;7.78;2.00;;;;;;;16.43;62.69;99600.59;4894996;29;20076;-78
2022/06/16 03:36:27;;;;;;;5.88;1.70;;;;;;;16.69;62.20;99619.75;4905817;29;20067;-77
2022/06/16 03:38:54;;;;;;;5.10;1.63;;;;;;;16.64;62.06;99604.19;4907153;29;20044;-78
2022/06/16 03:41:21;;;;;;;4.65;1.95;;;;;;;16.76;61.74;99626.50;4889298;29;20055;-80
2022/06/16 03:43:47;;;;;;;3.85;1.60;;;;;;;16.80;61.50;99622.84;4923335;29;20453;-82
2022/06/16 03:46:17;;;;;;;3.30;1.60;;;;;;;16.75;61.09;99613.44;4907428;29;20048;-78
2022/06/16 03:48:51;;;;;;;2.47;1.60;;;;;;;16.83;61.01;99603.47;4907255;29;20107;-78
2022/06/16 03:51:27;;;;;;;6.47;2.95;;;;;;;16.92;61.06;99610.16;4890070;29;20496;-79
2022/06/16 03:53:53;;;;;;;7.78;2.00;;;;;;;17.00;60.31;99603.72;4910897;29;20175;-80
2022/06/16 03:56:19;;;;;;;5.18;2.00;;;;;;;17.00;60.45;99624.75;4906810;29;20040;-78
2022/06/16 03:58:52;;;;;;;4.60;2.33;;;;;;;17.14;60.54;99631.25;4906702;29;20120;-81
2022/06/16 04:01:19;;;;;;;2.95;1.90;;;;;;;17.31;60.26;99634.06;4889869;29;20048;-79
2022/06/16 04:04:01;;;;;;;5.72;2.40;;;;;;;17.29;59.72;99609.63;4905783;29;20460;-79
2022/06/16 04:06:35;;;;;;;6.63;1.80;;;;;;;17.38;59.58;99621.53;4923216;29;20044;-78
2022/06/16 04:09:03;;;;;;;5.82;2.30;;;;;;;17.45;59.51;99616.88;4908127;29;20120;-80
2022/06/16 04:11:31;;;;;;;5.00;3.15;;;;;;;17.61;59.30;99633.78;4922462;29;20500;-79
2022/06/16 04:14:04;;;;;;;4.03;2.47;;;;;;;17.81;59.27;99637.34;4910472;29;20048;-77
2022/06/16 04:16:33;;;;;;;3.97;1.95;;;;;;;18.19;58.88;99631.44;4894180;29;20127;-79
2022/06/16 04:19:00;;;;;;;4.03;1.63;;;;;;;18.35;57.88;99626.34;4922628;29;20069;-79
2022/06/16 04:21:28;;;;;;;7.47;3.05;;;;;;;18.39;57.77;99609.47;4909621;29;20040;-80
2022/06/16 04:24:13;;;;;;;7.32;2.38;;;;;;;18.50;57.39;99625.69;4913470;29;20071;-79
2022/06/16 04:26:40;;;;;;;2.22;1.58;;;;;;;18.63;57.02;99630.38;4906094;29;20040;-80
2022/06/16 04:29:10;;;;;;;1.85;1.60;;;;;;;18.66;56.62;99615.28;4921670;29;20269;-80
2022/06/16 04:31:36;;;;;;;4.75;1.77;;;;;;;18.84;56.53;99632.97;4919641;29;20040;-79
2022/06/16 04:34:03;;;;;;;3.13;1.98;;;;;;;18.85;56.59;99627.63;4890037;29;20090;-78
2022/06/16 04:36:33;;;;;;;4.53;2.47;;;;;;;18.90;56.42;99612.44;4904804;29;20109;-83
2022/06/16 04:39:06;;;;;;;4.90;1.70;;;;;;;18.97;55.80;99613.06;4908513;29;20112;-80
2022/06/16 04:41:35;;;;;;;3.65;1.90;;;;;;;19.00;55.69;99596.25;4883109;29;20385;-79
2022/06/16 04:44:04;;;;;;;3.95;1.73;;;;;;;19.20;55.62;99611.97;4910363;29;20067;-80
2022/06/16 04:46:32;;;;;;;2.38;1.45;;;;;;;19.38;55.47;99618.16;4906266;29;20449;-79
2022/06/16 04:48:58;;;;;;;5.25;1.98;;;;;;;19.48;54.56;99622.97;4911016;29;20357;-78
2022/06/16 04:51:25;;;;;;;3.85;1.55;;;;;;;19.48;54.81;99610.66;4913277;29;20095;-77
2022/06/16 04:53:53;;;;;;;5.07;1.80;;;;;;;19.62;54.57;99619.66;4925099;29;20052;-79
2022/06/16 04:56:51;;;;;;;3.17;1.58;;;;;;;19.74;53.75;99637.53;4910644;29;20040;-80
2022/06/16 04:59:41;;;;;;;6.55;1.90;;;;;;;19.78;53.89;99635.59;4908720;29;20064;-81
2022/06/16 05:02:26;;;;;;;2.50;1.55;;;;;;;19.90;53.34;99635.00;4907246;29;20138;-79
2022/06/16 05:05:11;;;;;;;2.60;1.60;;;;;;;20.00;52.99;99638.03;4907667;29;20052;-79
2022/06/16 05:07:43;;;;;;;6.80;1.65;;;;;;;20.05;52.73;99643.94;4909603;29;20480;-80
2022/06/16 05:10:28;;;;;;;3.75;1.40;;;;;;;20.00;52.52;99616.91;4906142;29;20074;-80
2022/06/16 05:13:03;;;;;;;2.55;1.67;;;;;;;20.22;52.09;99629.88;4925482;29;20086;-79
2022/06/16 05:15:47;;;;;;;3.65;1.50;;;;;;;20.36;51.96;99641.50;4911363;29;20088;-78
2022/06/16 05:18:32;;;;;;;5.22;1.95;;;;;;;20.34;51.70;99633.66;4913328;29;20055;-81
2022/06/16 05:21:13;;;;;;;4.53;1.85;;;;;;;20.50;51.89;99643.41;4913114;29;20047;-78
2022/06/16 05:23:58;;;;;;;1.88;1.50;;;;;;;20.60;51.30;99644.66;4910253;29;20044;-79
2022/06/16 05:26:43;;;;;;;3.80;1.50;;;;;;;20.68;51.32;99631.88;4909832;29;20040;-78
2022/06/16 05:29:28;;;;;;;5.32;1.80;;;;;;;20.88;51.00;99644.06;4910670;29;20048;-80
2022/06/16 05:32:20;;;;;;;2.88;1.70;;;;;;;21.04;50.21;99636.13;4918101;28;20062;-77
2022/06/16 05:35:05;;;;;;;4.30;1.52;;;;;;;21.12;50.37;99619.84;4906786;29;20151;-80
2022/06/16 05:37:35;;;;;;;3.00;2.00;;;;;;;21.33;49.86;99633.63;4914045;29;20103;-79
2022/06/16 05:40:20;;;;;;;4.57;1.90;;;;;;;21.32;49.54;99639.88;4910856;29;20078;-80
2022/06/16 05:43:05;;;;;;;4.35;2.20;;;;;;;21.42;48.85;99634.91;4913716;29;20047;-80
2022/06/16 05:45:51;;;;;;;4.40;2.10;;;;;;;21.55;48.66;99631.56;4912933;29;20052;-81
2022/06/16 05:48:41;;;;;;;5.93;1.92;;;;;;;22.01;48.78;99630.72;4921355;29;20103;-80
2022/06/16 05:51:12;;;;;;;5.05;2.00;;;;;;;22.51;47.80;99616.25;4927111;29;20044;-78
2022/06/16 05:53:59;;;;;;;4.60;1.90;;;;;;;23.19;47.53;99618.25;4918779;29;20043;-78
2022/06/16 05:56:30;;;;;;;5.43;1.63;;;;;;;24.67;45.99;99621.63;4916828;29;20044;-80
2022/06/16 05:58:56;;;;;;;3.70;1.45;;;;;;;26.22;43.69;99603.31;4928051;29;20044;-82
2022/06/16 06:01:24;;;;;;;3.33;1.70;;;;;;;27.69;41.48;99596.09;4913629;29;20048;-79
2022/06/16 06:03:56;;;;;;;4.50;1.65;;;;;;;29.38;38.96;99603.75;4896600;29;20036;-79
2022/06/16 06:06:22;;;;;;;2.65;1.65;;;;;;;31.16;36.33;99599.59;4888485;29;20070;-79
2022/06/16 06:17:32;;;;;;;1.75;1.30;;;;;;;35.37;28.29;99587.91;4928710;29;20043;-81
2022/06/16 06:19:59;;;;;;;2.95;1.20;;;;;;;36.19;26.93;99585.53;4925425;29;20052;-80
2022/06/16 06:22:25;;;;;;;7.97;1.50;;;;;;;37.06;25.22;99593.94;4913499;29;20050;-78
2022/06/16 06:24:58;;;;;;;3.67;1.38;;;;;;;37.59;23.75;99590.09;4912521;29;20086;-81
2022/06/16 06:27:34;;;;;;;4.43;1.30;;;;;;;38.22;23.00;99598.28;4924496;29;20511;-78
2022/06/16 06:30:04;;;;;;;3.00;1.45;;;;;;;38.30;21.86;99577.44;4923775;29;20036;-81
2022/06/16 06:32:30;;;;;;;3.13;1.23;;;;;;;38.38;21.27;99594.44;4907647;29;20143;-81
2022/06/16 06:34:57;;;;;;;2.47;1.50;;;;;;;38.60;21.02;99607.94;4911585;29;20056;-80
2022/06/16 06:37:25;;;;;;;2.40;0.90;;;;;;;39.06;20.62;99601.03;4909462;29;20397;-81
2022/06/16 06:39:51;;;;;;;1.77;1.35;;;;;;;39.37;19.65;99585.19;4912480;29;20218;-79
2022/06/16 06:42:18;;;;;;;2.47;1.40;;;;;;;40.03;18.77;99600.66;4918118;29;20090;-80
2022/06/16 06:44:45;;;;;;;6.28;1.30;;;;;;;39.45;18.81;99601.28;4906568;29;20564;-80
2022/06/16 06:47:17;;;;;;;5.13;1.38;;;;;;;38.71;19.52;99596.50;4907957;29;20413;-80
2022/06/16 06:49:43;;;;;;;4.22;1.20;;;;;;;38.72;19.86;99598.16;4910250;29;20044;-80
2022/06/16 06:52:10;;;;;;;2.95;1.25;;;;;;;39.45;19.32;99580.38;4928588;29;20079;-78
2022/06/16 06:54:36;;;;;;;4.05;1.33;;;;;;;39.96;18.87;99574.50;4917148;29;20072;-80
2022/06/16 06:57:02;;;;;;;3.70;1.30;;;;;;;40.40;17.88;99581.13;4904516;29;20040;-81
2022/06/16 06:59:28;;;;;;;7.90;1.30;;;;;;;41.15;17.31;99578.91;4904925;29;20043;-79
2022/06/16 07:01:54;;;;;;;4.25;1.50;;;;;;;42.02;15.92;99577.38;4917311;29;20099;-82
2022/06/16 07:04:21;;;;;;;4.65;1.50;;;;;;;42.14;16.34;99579.13;4924410;29;20063;-78
2022/06/16 07:06:48;;;;;;;3.20;1.10;;;;;;;42.84;16.00;99582.50;4907619;29;20602;-79
2022/06/16 07:09:16;;;;;;;3.17;1.13;;;;;;;40.63;16.20;99582.50;4919304;29;20492;-79
2022/06/16 07:11:43;;;;;;;4.20;1.15;;;;;;;37.67;17.88;99579.94;4922033;29;22198;-78
2022/06/16 07:14:10;;;;;;;3.40;1.40;;;;;;;35.44;19.75;99598.84;4903310;29;20467;-81
2022/06/16 07:16:36;;;;;;;3.28;1.48;;;;;;;33.73;20.97;99592.88;4934168;29;20051;-78
2022/06/16 07:19:03;;;;;;;5.55;1.60;;;;;;;32.60;22.29;99592.28;4901500;29;20107;-82
2022/06/16 07:21:29;;;;;;;3.80;1.30;;;;;;;33.45;22.39;99574.34;4913037;29;20090;-79
2022/06/16 07:23:56;;;;;;;6.95;1.40;;;;;;;34.01;21.90;99590.66;4915459;29;20118;-81
2022/06/16 07:26:22;;;;;;;4.10;1.35;;;;;;;34.60;20.98;99577.88;4910572;29;20052;-78
2022/06/16 07:28:49;;;;;;;7.20;1.23;;;;;;;34.03;21.39;99585.13;4911496;29;20156;-80
2022/06/16 07:31:16;;;;;;;3.50;1.33;;;;;;;32.61;22.32;99588.56;4910052;29;20435;-79
2022/06/16 07:33:42;;;;;;;5.35;1.17;;;;;;;32.11;23.03;99603.59;4914238;29;20047;-81
2022/06/16 07:36:10;;;;;;;3.72;1.00;;;;;;;34.25;22.29;99580.84;4910741;29;20607;-78
2022/06/16 07:38:37;;;;;;;1.80;1.00;;;;;;;36.77;20.65;99577.56;4910046;29;20506;-83
2022/06/16 07:43:49;;;;;;;4.20;1.20;;;;;;;38.56;18.01;99560.47;4908095;29;20039;-82
2022/06/16 07:46:15;;;;;;;3.95;1.30;;;;;;;36.90;18.35;99568.72;4915250;29;20051;-81
2022/06/16 07:48:41;;;;;;;1.30;0.98;;;;;;;34.84;19.18;99564.25;4918852;29;20396;-80
2022/06/16 07:51:07;;;;;;;6.03;1.40;;;;;;;32.99;20.87;99585.53;4910633;29;20506;-81
2022/06/16 07:53:33;;;;;;;3.60;1.20;;;;;;;31.64;22.32;99580.56;4911472;29;20072;-82
2022/06/16 07:56:00;;;;;;;2.92;1.20;;;;;;;30.82;23.62;99577.88;4918600;29;20048;-81
2022/06/16 07:58:31;;;;;;;3.95;1.10;;;;;;;30.38;23.60;99581.16;4927717;29;20162;-79
2022/06/16 08:00:59;;;;;;;2.47;1.10;;;;;;;32.26;23.17;99564.34;4927410;29;20416;-80
2022/06/16 08:03:29;;;;;;;3.17;1.00;;;;;;;34.78;21.49;99556.00;4953377;29;20048;-81
2022/06/16 08:05:57;;;;;;;2.47;1.00;;;;;;;37.03;19.06;99550.94;4921652;29;20040;-80
2022/06/16 08:08:25;;;;;;;2.08;0.95;;;;;;;38.66;17.99;99547.34;4937754;29;20047;-80
2022/06/16 08:10:52;;;;;;;1.65;1.10;;;;;;;39.97;17.03;99548.94;4928078;29;20095;-80
2022/06/16 08:13:20;;;;;;;4.15;1.17;;;;;;;40.50;16.13;99532.44;4926972;29;20055;-79
2022/06/16 08:15:46;;;;;;;5.30;1.08;;;;;;;40.64;15.63;99543.28;4938112;29;20071;-82
2022/06/16 08:18:21;;;;;;;2.45;1.00;;;;;;;41.43;14.97;99556.66;4928213;29;20048;-79
2022/06/16 08:20:49;;;;;;;3.55;1.25;;;;;;;40.61;15.50;99527.34;4924948;29;20100;-80
2022/06/16 08:23:16;;;;;;;3.15;1.23;;;;;;;39.01;16.20;99555.38;4939075;29;20040;-79
2022/06/16 08:25:44;;;;;;;2.33;0.93;;;;;;;36.61;17.69;99546.09;4921268;29;20091;-79
2022/06/16 08:28:12;;;;;;;4.50;1.20;;;;;;;35.98;17.91;99557.31;4937679;29;20051;-79
2022/06/16 08:30:41;;;;;;;3.65;1.35;;;;;;;34.56;19.15;99557.63;4915626;29;20072;-81
2022/06/16 08:33:15;;;;;;;5.65;1.30;;;;;;;32.97;20.07;99553.38;4950788;28;20529;-80
2022/06/16 08:35:44;;;;;;;5.03;1.30;;;;;;;32.83;21.25;99562.09;4922082;29;20060;-79
2022/06/16 08:38:11;;;;;;;6.30;1.30;;;;;;;32.44;21.21;99558.91;4920475;29;20040;-80
2022/06/16 08:40:43;;;;;;;2.78;1.27;;;;;;;32.49;21.38;99554.88;4922973;29;20046;-79
2022/06/16 08:43:29;;;;;;;4.97;1.10;;;;;;;32.86;21.61;99554.53;4918689;29;20039;-78
2022/06/16 08:45:59;;;;;;;2.90;1.10;;;;;;;33.63;20.90;99555.28;4908451;29;20044;-81
2022/06/16 08:48:41;;;;;;;1.88;1.20;;;;;;;35.43;19.92;99546.59;4919846;29;20068;-79
2022/06/16 08:51:26;;;;;;;2.08;1.20;;;;;;;37.79;17.16;99534.13;4932370;29;20413;-79
2022/06/16 08:54:10;;;;;;;3.25;1.30;;;;;;;39.52;16.60;99546.88;4917497;29;20048;-79
2022/06/16 08:56:46;;;;;;;2.28;1.00;;;;;;;40.79;15.60;99546.56;4918705;29;20040;-80
2022/06/16 08:59:34;;;;;;;6.47;1.67;;;;;;;41.66;14.21;99544.31;4915563;29;20121;-80
2022/06/16 09:02:15;;;;;;;6.05;1.17;;;;;;;41.91;14.17;99541.50;4907413;29;20044;-80
2022/06/16 09:04:48;;;;;;;4.40;1.17;;;;;;;42.09;13.94;99537.16;4920765;29;20040;-83
2022/06/16 09:07:24;;;;;;;1.65;0.90;;;;;;;42.17;12.96;99534.13;4924629;29;20053;-79
2022/06/16 09:10:18;;;;;;;1.65;1.10;;;;;;;41.69;13.14;99544.69;4925285;29;20039;-80
2022/06/16 09:13:11;;;;;;;2.47;0.90;;;;;;;41.58;13.05;99544.56;4926598;29;20056;-79
2022/06/16 09:15:56;;;;;;;4.47;1.02;;;;;;;41.72;13.17;99534.38;4925347;29;20108;-80
2022/06/16 09:18:22;;;;;;;2.85;1.13;;;;;;;41.50;13.36;99537.47;4922842;29;20052;-79
2022/06/16 09:21:10;;;;;;;3.85;1.02;;;;;;;41.85;12.97;99534.22;4924246;29;20043;-82
2022/06/16 09:23:42;;;;;;;4.07;1.05;;;;;;;41.83;12.91;99539.91;4939461;29;20069;-80
2022/06/16 09:26:24;;;;;;;7.68;1.20;;;;;;;41.16;12.98;99539.66;4956045;29;20052;-81
2022/06/16 09:28:59;;;;;;;3.75;1.23;;;;;;;39.06;14.41;99530.31;4927199;29;20028;-79
2022/06/16 09:31:35;;;;;;;5.85;1.20;;;;;;;39.12;14.09;99523.22;4926269;29;20043;-79
2022/06/16 09:34:08;;;;;;;1.08;0.93;;;;;;;39.60;13.46;99543.94;4911672;29;20067;-81
2022/06/16 09:36:38;;;;;;;1.58;0.93;;;;;;;39.95;13.44;99537.44;4922605;29;20052;-81
2022/06/16 09:39:10;;;;;;;;;;;;;;;39.84;13.62;99531.56;4924241;29;20048;-81
2022/06/16 09:44:49;;;;;;;3.03;1.73;;;;;;;39.65;13.65;99524.25;4925247;29;20047;-80
2022/06/16 09:47:24;;;;;;;3.50;2.72;;;;;;;40.45;13.25;99507.75;4919519;29;20135;-81
2022/06/16 09:50:18;;;;;;;8.70;5.20;;;;;;;41.52;12.82;99510.84;4921507;29;20044;-80
2022/06/16 09:53:00;;;;;;;18.63;13.07;;;;;;;41.57;13.22;99507.41;4909455;29;20047;-80
2022/06/16 09:55:36;;;;;;;8.43;5.78;;;;;;;41.93;13.17;99492.97;4921887;29;20048;-80
2022/06/16 09:58:10;;;;;;;6.90;3.10;;;;;;;42.48;13.21;99499.50;4911208;29;20044;-81
2022/06/16 10:00:37;;;;;;;5.13;1.90;;;;;;;43.06;13.22;99519.06;4911374;29;20051;-81
2022/06/16 10:03:42;;;;;;;4.78;1.50;;;;;;;42.26;12.96;99519.06;4911348;29;20827;-80
2022/06/16 10:06:33;;;;;;;4.38;1.90;;;;;;;42.66;13.18;99509.53;4897777;29;20059;-81
2022/06/16 10:09:15;;;;;;;3.53;1.30;;;;;;;43.58;12.54;99512.94;4928742;29;20048;-81
2022/06/16 10:12:01;;;;;;;3.58;2.63;;;;;;;44.22;12.23;99508.59;4909344;29;20047;-79
2022/06/16 10:14:46;;;;;;;5.68;2.05;;;;;;;44.81;11.69;99491.88;4910793;29;20055;-79
2022/06/16 10:17:17;;;;;;;4.03;1.75;;;;;;;45.36;11.26;99494.19;4913561;29;20071;-80
2022/06/16 10:19:45;;;;;;;5.97;1.70;;;;;;;44.77;11.15;99520.91;4912054;29;20051;-81
2022/06/16 10:22:22;;;;;;;2.90;1.33;;;;;;;42.31;12.13;99499.25;4927833;29;20067;-82
2022/06/16 10:25:00;;;;;;;5.63;2.97;;;;;;;41.48;12.61;99509.56;4907063;29;20131;-81
2022/06/16 10:27:40;;;;;;;3.75;3.05;;;;;;;40.12;13.00;99511.41;4913245;29;20116;-81
2022/06/16 10:30:17;;;;;;;4.45;1.15;;;;;;;38.41;14.08;99504.41;4907958;29;20044;-80
2022/06/16 10:32:46;;;;;;;2.72;1.35;;;;;;;36.96;15.26;99506.69;4910369;29;20051;-80
2022/06/16 10:35:20;;;;;;;5.18;2.47;;;;;;;35.86;16.37;99515.50;4914451;29;20051;-80
2022/06/16 10:37:49;;;;;;;3.58;1.70;;;;;;;35.03;17.03;99513.47;4899492;29;20071;-77
2022/06/16 10:40:29;;;;;;;5.28;2.58;;;;;;;34.27;17.78;99503.22;4911694;29;20429;-80
2022/06/16 10:43:00;;;;;;;3.23;2.10;;;;;;;33.75;18.11;99515.34;4910096;29;20044;-79
2022/06/16 10:45:33;;;;;;;3.17;1.60;;;;;;;32.98;18.91;99522.75;4911202;29;20514;-80
2022/06/16 10:48:05;;;;;;;6.45;1.70;;;;;;;32.37;19.29;99522.03;4908210;29;20138;-79
2022/06/16 10:50:36;;;;;;;1.50;1.10;;;;;;;31.99;19.80;99519.63;4911050;29;20538;-77
2022/06/16 10:53:21;;;;;;;3.92;1.30;;;;;;;31.68;20.64;99504.81;4897328;29;20520;-77
2022/06/16 10:55:49;;;;;;;3.28;1.35;;;;;;;31.67;20.52;99518.38;4925018;29;20032;-82
2022/06/16 10:58:23;;;;;;;4.32;1.20;;;;;;;31.34;20.91;99515.47;4912351;29;20415;-79
2022/06/16 11:01:20;;;;;;;3.90;1.10;;;;;;;30.54;21.42;99526.84;4907581;29;20055;-80
2022/06/16 11:04:03;;;;;;;2.28;1.17;;;;;;;29.74;21.65;99502.16;4912137;29;20052;-82
2022/06/16 11:06:29;;;;;;;6.57;1.35;;;;;;;29.59;22.16;99515.16;4916000;29;20138;-79
2022/06/16 11:09:05;;;;;;;3.22;1.40;;;;;;;29.48;22.51;99527.84;4915837;29;20104;-80
2022/06/16 11:11:52;;;;;;;2.13;1.20;;;;;;;29.00;22.73;99506.28;4912124;29;20074;-80
2022/06/16 11:14:41;;;;;;;3.83;1.50;;;;;;;28.79;22.71;99523.31;4929075;29;20452;-80
2022/06/16 11:17:36;;;;;;;3.97;1.85;;;;;;;28.43;23.10;99533.59;4909967;29;20039;-81
2022/06/16 11:20:26;;;;;;;3.35;1.58;;;;;;;28.02;23.67;99532.69;4924717;29;20048;-77
2022/06/16 11:22:53;;;;;;;3.70;1.40;;;;;;;27.53;24.00;99513.69;4895274;29;20146;-80
2022/06/16 11:25:36;;;;;;;3.55;1.45;;;;;;;27.59;24.30;99531.84;4906885;29;20096;-78
2022/06/16 11:28:14;;;;;;;2.47;1.40;;;;;;;27.22;24.29;99535.78;4908773;29;20372;-78
2022/06/16 11:30:47;;;;;;;10.52;1.80;;;;;;;26.84;24.66;99516.59;4908583;29;20044;-78
2022/06/16 11:36:48;;;;;;;1.63;1.23;;;;;;;26.66;25.83;99531.41;4908281;29;20064;-80
2022/06/16 11:39:35;;;;;;;3.08;1.40;;;;;;;26.31;25.74;99535.94;4939194;29;20567;-80
2022/06/16 11:42:02;;;;;;;5.47;1.35;;;;;;;26.00;26.09;99531.16;4922570;29;20153;-82
2022/06/16 11:45:20;;;;;;;5.28;1.10;;;;;;;26.02;25.89;99534.56;4923984;29;20123;-83
2022/06/16 11:47:51;;;;;;;3.53;1.00;;;;;;;25.62;26.61;99537.59;4898888;29;20509;-80
2022/06/16 11:50:31;;;;;;;6.07;1.70;;;;;;;25.38;27.36;99533.13;4915223;29;20047;-79
2022/06/16 11:53:28;;;;;;;6.55;1.40;;;;;;;25.34;27.38;99536.16;4930527;29;20109;-80
2022/06/16 11:56:07;;;;;;;3.42;1.30;;;;;;;25.15;27.58;99540.19;4943834;29;20071;-81
2022/06/16 11:58:51;;;;;;;2.05;1.10;;;;;;;25.01;27.63;99541.22;4911124;29;20067;-80
2022/06/16 12:01:26;;;;;;;2.15;1.50;;;;;;;24.83;27.82;99534.59;4907468;29;20079;-80
2022/06/16 12:04:15;;;;;;;2.88;1.42;;;;;;;24.65;28.39;99534.94;4922598;29;20556;-80
2022/06/16 12:06:58;;;;;;;4.30;1.88;;;;;;;24.57;28.21;99538.16;4916772;29;20056;-79
2022/06/16 12:09:58;;;;;;;5.82;1.55;;;;;;;24.57;28.21;99535.47;4908899;29;20103;-77
2022/06/16 12:12:47;;;;;;;4.28;1.27;;;;;;;24.70;28.50;99521.28;4913430;29;20067;-81
2022/06/16 12:15:31;;;;;;;5.72;1.20;;;;;;;24.92;28.18;99534.75;4912727;29;20040;-81
2022/06/16 12:18:31;;;;;;;4.30;1.05;;;;;;;24.76;28.11;99532.34;4907795;29;20047;-78
2022/06/16 12:21:09;;;;;;;2.55;0.93;;;;;;;24.42;28.26;99525.91;4912442;29;20048;-78
2022/06/16 12:23:59;;;;;;;3.53;1.35;;;;;;;24.11;28.15;99501.53;4910577;29;20079;-81
2022/06/16 12:26:52;;;;;;;2.60;1.10;;;;;;;24.33;28.59;99538.06;4913577;29;20075;-78
2022/06/16 12:29:18;;;;;;;3.38;1.75;;;;;;;24.39;28.59;99532.31;4914325;29;20464;-80
2022/06/16 12:32:19;;;;;;;6.55;1.40;;;;;;;24.52;28.79;99529.63;4910860;29;21368;-79
2022/06/16 12:35:20;;;;;;;2.20;1.10;;;;;;;24.48;28.73;99498.91;4922068;29;20135;-80